Terminal Aerodrome Forecast
Issued by NWS

Home | Current Version | Previous Version | Graphics & Text | Print | Product List | Glossary On
Versions: 1 2 3 4 5 6 7 8 9 10 11 12 13 14 15 16 17
000
FTUS42 KMHX 140543
TAFPGV
TAF
KPGV 140543Z 1406/1506 05009KT P6SM OVC035
     FM141400 04007KT P6SM VCSH OVC020
     FM142300 VRB03KT P6SM SCT008 BKN020
      AMD LTD TO CLD VIS AND WIND=

USA.gov is the U.S. government's official web portal to all federal, state and local government web resources and services.